Time;durP1;ratioP1;P1;durP2;ratioP2;P2;SDS_P1;SDS_P2;PMS_P1;PMS_P2;Temp;Humidity;BMP_temperature;BMP_pressure;BME280_temperature;BME280_humidity;BME280_pressure;Samples;Min_cycle;Max_cycle;Signal;HPM_P1;HPM_P2
2023/09/02 00:00:05;;;;;;;18.17;16.38;;;19.00;99.90;;;;;;5034058;28;20037;-51
2023/09/02 00:02:38;;;;;;;17.73;15.85;;;19.00;99.90;;;;;;5034560;28;20052;-50
2023/09/02 00:05:05;;;;;;;18.50;16.52;;;19.00;99.90;;;;;;5034225;28;20034;-50
2023/09/02 00:07:32;;;;;;;19.92;16.98;;;19.10;99.90;;;;;;5034196;28;20041;-49
2023/09/02 00:09:58;;;;;;;21.13;16.38;;;19.00;99.90;;;;;;5049761;28;20140;-53
2023/09/02 00:12:25;;;;;;;18.92;16.60;;;19.00;99.90;;;;;;5034622;28;20051;-50
2023/09/02 00:14:52;;;;;;;19.63;17.52;;;19.00;99.90;;;;;;5034186;28;20124;-49
2023/09/02 00:17:19;;;;;;;19.80;17.52;;;19.00;99.90;;;;;;5034072;28;20053;-51
2023/09/02 00:19:46;;;;;;;21.77;18.88;;;19.00;99.90;;;;;;5032498;28;20076;-48
2023/09/02 00:22:13;;;;;;;20.15;17.42;;;19.10;99.90;;;;;;5033468;28;20366;-49
2023/09/02 00:24:39;;;;;;;24.70;21.05;;;19.00;99.90;;;;;;5033981;28;20048;-50
2023/09/02 00:27:06;;;;;;;26.60;22.70;;;19.00;99.90;;;;;;5032800;28;20049;-54
2023/09/02 00:29:33;;;;;;;29.23;22.38;;;19.00;99.90;;;;;;5032274;28;20051;-50
2023/09/02 00:32:00;;;;;;;25.48;22.40;;;18.90;99.90;;;;;;5033508;28;20065;-48
2023/09/02 00:34:27;;;;;;;28.60;21.92;;;18.90;99.90;;;;;;5033815;28;20045;-56
2023/09/02 00:36:54;;;;;;;28.95;22.48;;;18.80;99.90;;;;;;5032039;28;20052;-51
2023/09/02 00:39:21;;;;;;;28.40;23.58;;;18.80;99.90;;;;;;5032559;28;20037;-51
2023/09/02 00:41:48;;;;;;;31.40;25.15;;;18.70;99.90;;;;;;5034033;28;20044;-55
2023/09/02 00:44:15;;;;;;;30.13;25.88;;;18.60;99.90;;;;;;5032730;28;20465;-53
2023/09/02 00:46:42;;;;;;;36.30;26.60;;;18.50;99.90;;;;;;5033667;28;20041;-49
2023/09/02 00:49:09;;;;;;;34.95;26.55;;;18.50;99.90;;;;;;5033486;28;20045;-48
2023/09/02 00:51:36;;;;;;;36.03;26.42;;;18.50;99.90;;;;;;5032336;28;20052;-51
2023/09/02 00:54:02;;;;;;;38.03;27.35;;;18.50;99.90;;;;;;5033199;28;20048;-48
2023/09/02 00:56:29;;;;;;;35.58;26.48;;;18.40;99.90;;;;;;5033564;28;20128;-55
2023/09/02 00:58:56;;;;;;;34.30;26.58;;;18.40;99.90;;;;;;5033436;28;20464;-52
2023/09/02 01:01:23;;;;;;;35.80;27.77;;;18.40;99.90;;;;;;5033593;28;20099;-52
2023/09/02 01:03:49;;;;;;;35.97;26.73;;;18.50;99.90;;;;;;5033314;28;20073;-48
2023/09/02 01:06:16;;;;;;;36.72;27.23;;;18.50;99.90;;;;;;5031848;28;20042;-56
2023/09/02 01:08:43;;;;;;;40.83;27.63;;;18.40;99.90;;;;;;5031910;28;20195;-51
2023/09/02 01:11:10;;;;;;;38.95;28.23;;;18.40;99.90;;;;;;5031174;28;20052;-51
2023/09/02 01:13:37;;;;;;;39.63;27.00;;;18.40;99.90;;;;;;5033184;28;20056;-49
2023/09/02 01:16:04;;;;;;;39.67;26.95;;;18.40;99.90;;;;;;5033492;28;20052;-48
2023/09/02 01:18:31;;;;;;;36.28;26.83;;;18.40;99.90;;;;;;5031694;28;20091;-54
2023/09/02 01:20:57;;;;;;;37.85;26.08;;;18.40;99.90;;;;;;5032986;28;20479;-50
2023/09/02 01:23:24;;;;;;;32.03;24.55;;;18.40;99.90;;;;;;5033145;28;20045;-52
2023/09/02 01:25:51;;;;;;;33.60;24.15;;;18.40;99.90;;;;;;5032113;28;20050;-50
2023/09/02 01:28:18;;;;;;;36.05;24.38;;;18.30;99.90;;;;;;5033159;28;20090;-50
2023/09/02 01:30:45;;;;;;;31.00;22.10;;;18.40;99.90;;;;;;5031434;28;20128;-53
2023/09/02 01:33:12;;;;;;;29.85;22.17;;;18.30;99.90;;;;;;5031653;28;20041;-47
2023/09/02 01:35:39;;;;;;;29.50;21.42;;;18.30;99.90;;;;;;5032793;28;20045;-49
2023/09/02 01:38:06;;;;;;;32.25;22.27;;;18.30;99.90;;;;;;5033135;28;20112;-51
2023/09/02 01:40:32;;;;;;;34.10;22.13;;;18.40;99.90;;;;;;5033401;28;20064;-52
2023/09/02 01:42:59;;;;;;;31.90;22.17;;;18.40;99.90;;;;;;5031867;28;20053;-51
2023/09/02 01:45:27;;;;;;;31.90;21.50;;;18.40;99.90;;;;;;5032751;28;20042;-49
2023/09/02 01:47:54;;;;;;;33.95;22.35;;;18.40;99.90;;;;;;5031361;28;20124;-51
2023/09/02 01:50:20;;;;;;;33.33;21.83;;;18.40;99.90;;;;;;5032771;28;20072;-50
2023/09/02 01:52:47;;;;;;;33.33;21.92;;;18.50;99.90;;;;;;5032285;28;20064;-49
2023/09/02 01:55:14;;;;;;;31.23;21.80;;;18.50;99.90;;;;;;5033156;28;20041;-52
2023/09/02 01:57:41;;;;;;;33.90;22.15;;;18.50;99.90;;;;;;5033108;28;20060;-53
2023/09/02 02:00:11;;;;;;;37.28;21.85;;;18.50;99.90;;;;;;5031809;28;20068;-49
2023/09/02 02:02:38;;;;;;;34.22;22.92;;;18.40;99.90;;;;;;5032772;28;20034;-55
2023/09/02 02:05:05;;;;;;;36.65;22.83;;;18.40;99.90;;;;;;5033169;28;20060;-52
2023/09/02 02:07:33;;;;;;;32.95;21.75;;;18.40;99.90;;;;;;5031567;28;20056;-51
2023/09/02 02:10:00;;;;;;;31.65;20.65;;;18.40;99.90;;;;;;5033058;28;20048;-54
2023/09/02 02:12:27;;;;;;;29.73;20.08;;;18.40;99.90;;;;;;5031374;28;20045;-47
2023/09/02 02:14:54;;;;;;;31.02;21.45;;;18.40;99.90;;;;;;5030971;28;20519;-53
2023/09/02 02:17:21;;;;;;;28.45;20.95;;;18.40;99.90;;;;;;5031326;28;20045;-53
2023/09/02 02:19:47;;;;;;;28.02;20.83;;;18.30;99.90;;;;;;5031405;28;20134;-54
2023/09/02 02:22:14;;;;;;;27.33;20.85;;;18.30;99.90;;;;;;5034368;28;20041;-50
2023/09/02 02:24:41;;;;;;;26.65;20.85;;;18.30;99.90;;;;;;5018720;28;20045;-53
2023/09/02 02:27:08;;;;;;;29.52;21.08;;;18.30;99.90;;;;;;5035896;28;20047;-47
2023/09/02 02:29:35;;;;;;;29.48;22.10;;;18.30;99.90;;;;;;5036170;28;20124;-50
2023/09/02 02:32:01;;;;;;;31.55;21.77;;;18.30;99.90;;;;;;5036126;28;20040;-49
2023/09/02 02:34:29;;;;;;;30.20;21.40;;;18.30;99.90;;;;;;5034847;28;20037;-52
2023/09/02 02:36:55;;;;;;;31.17;21.67;;;18.30;99.90;;;;;;5034230;28;20041;-49
2023/09/02 02:39:22;;;;;;;29.38;20.52;;;18.30;99.90;;;;;;5034361;28;20108;-50
2023/09/02 02:41:49;;;;;;;26.48;20.50;;;18.40;99.90;;;;;;5035916;28;20057;-49
2023/09/02 02:44:16;;;;;;;28.90;21.50;;;18.40;99.90;;;;;;5035922;28;20117;-48
2023/09/02 02:46:43;;;;;;;27.10;20.70;;;18.40;99.90;;;;;;5034017;28;20038;-49
2023/09/02 02:49:11;;;;;;;30.83;21.50;;;18.40;99.90;;;;;;5035894;28;20049;-48
2023/09/02 02:51:38;;;;;;;28.70;20.55;;;18.40;99.90;;;;;;5035682;28;20041;-50
2023/09/02 02:54:05;;;;;;;28.33;21.55;;;18.30;99.90;;;;;;5035081;28;20054;-50
2023/09/02 02:56:31;;;;;;;26.40;21.63;;;18.30;99.90;;;;;;5035515;28;20061;-52
2023/09/02 02:58:58;;;;;;;28.10;21.40;;;18.20;99.90;;;;;;5035573;28;20081;-49
2023/09/02 03:01:25;;;;;;;31.83;21.35;;;18.30;99.90;;;;;;5034130;28;20132;-48
2023/09/02 03:03:54;;;;;;;30.88;22.23;;;18.30;99.90;;;;;;5034728;28;20068;-53
2023/09/02 03:06:21;;;;;;;31.80;22.40;;;18.30;99.90;;;;;;5034201;28;20484;-50
2023/09/02 03:08:48;;;;;;;29.95;22.17;;;18.30;99.90;;;;;;5035439;28;20381;-48
2023/09/02 03:11:15;;;;;;;31.83;21.73;;;18.30;99.90;;;;;;5033713;28;20140;-44
2023/09/02 03:13:42;;;;;;;32.35;23.23;;;18.30;99.90;;;;;;5033939;28;20046;-45
2023/09/02 03:16:22;;;;;;;30.67;22.33;;;18.20;99.90;;;;;;5033553;28;20043;-48
2023/09/02 03:18:49;;;;;;;35.10;23.58;;;18.20;99.90;;;;;;5033502;28;20049;-45
2023/09/02 03:21:17;;;;;;;34.75;22.95;;;18.20;99.90;;;;;;5034008;28;20467;-45
2023/09/02 03:23:44;;;;;;;39.03;24.38;;;18.20;99.90;;;;;;5033385;28;20099;-47
2023/09/02 03:26:11;;;;;;;40.22;24.05;;;18.10;99.90;;;;;;5033822;28;20045;-47
2023/09/02 03:28:41;;;;;;;38.92;25.15;;;18.10;99.90;;;;;;5033929;28;20045;-50
2023/09/02 03:31:09;;;;;;;37.33;25.27;;;18.00;99.90;;;;;;5034091;28;20432;-45
2023/09/02 03:33:38;;;;;;;41.10;24.50;;;18.10;99.90;;;;;;5033102;28;20502;-46
2023/09/02 03:36:06;;;;;;;38.80;23.90;;;18.10;99.90;;;;;;5033388;28;20049;-47
2023/09/02 03:38:33;;;;;;;39.22;23.50;;;18.10;99.90;;;;;;5034942;28;20112;-48
2023/09/02 03:41:00;;;;;;;36.97;24.23;;;18.10;99.90;;;;;;5034911;28;20069;-50
2023/09/02 03:43:27;;;;;;;40.05;25.65;;;18.10;99.90;;;;;;5035296;28;20042;-53
2023/09/02 03:45:54;;;;;;;40.63;25.90;;;18.10;99.90;;;;;;5033676;28;20087;-50
2023/09/02 03:48:21;;;;;;;37.75;24.92;;;18.10;99.90;;;;;;5034876;28;20447;-49
2023/09/02 03:50:51;;;;;;;33.50;24.77;;;18.10;99.90;;;;;;5033153;28;20519;-49
2023/09/02 03:53:18;;;;;;;35.78;24.33;;;18.10;99.90;;;;;;5033136;28;20088;-49
2023/09/02 03:55:45;;;;;;;38.00;24.25;;;18.10;99.90;;;;;;5034571;28;20037;-51
2023/09/02 03:58:12;;;;;;;36.22;23.73;;;18.20;99.90;;;;;;5034397;28;20539;-50
2023/09/02 04:00:38;;;;;;;34.67;23.70;;;18.10;99.90;;;;;;5033334;28;20041;-51
2023/09/02 04:03:06;;;;;;;33.70;23.45;;;18.20;99.90;;;;;;5034456;28;20042;-46
2023/09/02 04:05:33;;;;;;;34.38;22.90;;;18.20;99.90;;;;;;5034652;28;20539;-50
2023/09/02 04:08:00;;;;;;;31.33;22.63;;;18.20;99.90;;;;;;5032713;28;20568;-51
2023/09/02 04:10:27;;;;;;;31.65;21.65;;;18.20;99.90;;;;;;5034487;28;20499;-49
2023/09/02 04:12:54;;;;;;;33.55;22.27;;;18.20;99.90;;;;;;5032746;28;20135;-51
2023/09/02 04:15:21;;;;;;;33.88;21.70;;;18.20;99.90;;;;;;5032631;28;20049;-48
2023/09/02 04:17:49;;;;;;;32.28;21.13;;;18.20;99.90;;;;;;5017314;28;20046;-50
2023/09/02 04:20:16;;;;;;;31.38;21.15;;;18.20;99.90;;;;;;5032457;28;20067;-48
2023/09/02 04:22:43;;;;;;;34.83;21.48;;;18.20;99.90;;;;;;5033864;28;20037;-53
2023/09/02 04:25:10;;;;;;;32.85;20.42;;;18.20;99.90;;;;;;5034432;28;20041;-52
2023/09/02 04:27:38;;;;;;;32.00;20.60;;;18.10;99.90;;;;;;5032705;28;20045;-52
2023/09/02 04:30:07;;;;;;;30.70;19.08;;;18.10;99.90;;;;;;5032414;28;20140;-54
2023/09/02 04:32:33;;;;;;;31.45;18.98;;;18.20;99.90;;;;;;5033711;28;20140;-56
2023/09/02 04:35:02;;;;;;;30.40;19.67;;;18.10;99.90;;;;;;5032557;28;20478;-52
2023/09/02 04:37:29;;;;;;;30.00;19.10;;;18.10;99.90;;;;;;5032629;28;20046;-49
2023/09/02 04:39:56;;;;;;;27.20;17.92;;;18.10;99.90;;;;;;5032271;28;20469;-51
2023/09/02 04:42:24;;;;;;;28.25;18.80;;;18.20;99.90;;;;;;5033653;28;20052;-46
2023/09/02 04:44:50;;;;;;;29.60;18.80;;;18.10;99.90;;;;;;5032839;28;20049;-52
2023/09/02 04:47:17;;;;;;;24.73;17.02;;;18.10;99.90;;;;;;5032208;28;20522;-50
2023/09/02 04:49:44;;;;;;;28.05;19.23;;;18.20;99.90;;;;;;5032558;28;20077;-51
2023/09/02 04:52:11;;;;;;;28.25;18.05;;;18.20;99.90;;;;;;5032043;28;20567;-52
2023/09/02 04:54:38;;;;;;;30.58;18.70;;;18.10;99.90;;;;;;5032238;28;20163;-53
2023/09/02 04:57:05;;;;;;;30.27;18.27;;;18.20;99.90;;;;;;5031862;28;20059;-52
2023/09/02 04:59:32;;;;;;;27.92;18.92;;;18.20;99.90;;;;;;5032158;28;20041;-49
2023/09/02 05:01:59;;;;;;;26.98;17.55;;;18.10;99.90;;;;;;5032249;28;20068;-52
2023/09/02 05:04:26;;;;;;;29.63;18.48;;;18.10;99.90;;;;;;5033195;28;20041;-51
2023/09/02 05:06:53;;;;;;;25.45;18.13;;;18.10;99.90;;;;;;5033380;28;20041;-50
2023/09/02 05:09:20;;;;;;;28.23;19.15;;;18.10;99.90;;;;;;5016037;28;20099;-46
2023/09/02 05:11:47;;;;;;;28.23;18.88;;;18.20;99.90;;;;;;5033077;28;20053;-46
2023/09/02 05:14:14;;;;;;;27.38;18.05;;;18.20;99.90;;;;;;5031530;28;20045;-49
2023/09/02 05:16:41;;;;;;;27.80;18.48;;;18.10;99.90;;;;;;5031539;28;20041;-50
2023/09/02 05:19:08;;;;;;;31.45;19.90;;;18.20;99.90;;;;;;5031654;28;20497;-50
2023/09/02 05:21:36;;;;;;;30.73;19.38;;;18.10;99.90;;;;;;5031350;28;20050;-51
2023/09/02 05:24:03;;;;;;;28.20;18.77;;;18.10;99.90;;;;;;5032069;28;20443;-52
2023/09/02 05:26:30;;;;;;;32.72;20.27;;;18.20;99.90;;;;;;5031488;28;20124;-50
2023/09/02 05:28:57;;;;;;;34.05;19.73;;;18.10;99.90;;;;;;5033391;28;20037;-48
2023/09/02 05:31:24;;;;;;;29.52;19.52;;;18.10;99.90;;;;;;5033370;28;20144;-48
2023/09/02 05:33:50;;;;;;;30.55;20.50;;;18.10;99.90;;;;;;5032786;28;20489;-52
2023/09/02 05:36:17;;;;;;;33.58;20.65;;;18.10;99.90;;;;;;5031692;28;20481;-51
2023/09/02 05:38:44;;;;;;;32.10;20.58;;;18.10;99.90;;;;;;5033129;28;20136;-50
2023/09/02 05:41:11;;;;;;;29.77;20.50;;;18.10;99.90;;;;;;5032875;28;20044;-48
2023/09/02 05:43:37;;;;;;;33.05;21.13;;;18.10;99.90;;;;;;5032862;28;20045;-46
2023/09/02 05:46:04;;;;;;;31.95;21.05;;;18.10;99.90;;;;;;5032238;28;20395;-49
2023/09/02 05:48:31;;;;;;;34.00;21.58;;;18.10;99.90;;;;;;5033367;28;20056;-49
2023/09/02 05:50:58;;;;;;;33.65;21.10;;;18.10;99.90;;;;;;5033326;28;20435;-48
2023/09/02 05:53:25;;;;;;;33.13;21.90;;;18.20;99.90;;;;;;5032616;28;20049;-47
2023/09/02 05:55:52;;;;;;;32.28;21.67;;;18.20;99.90;;;;;;5032837;28;20053;-48
2023/09/02 05:58:19;;;;;;;36.05;22.30;;;18.20;99.90;;;;;;5036222;28;20124;-46
2023/09/02 06:00:45;;;;;;;33.17;21.27;;;18.20;99.90;;;;;;5036424;28;20503;-46
2023/09/02 06:03:12;;;;;;;32.65;21.13;;;18.30;99.90;;;;;;5036412;28;20385;-48
2023/09/02 06:05:39;;;;;;;34.10;22.25;;;18.30;99.90;;;;;;5036981;28;20036;-46
2023/09/02 06:08:06;;;;;;;35.40;23.00;;;18.30;99.90;;;;;;5036401;28;20079;-52
2023/09/02 06:10:33;;;;;;;32.90;22.25;;;18.30;99.90;;;;;;5036340;28;20128;-52
2023/09/02 06:12:59;;;;;;;37.38;23.52;;;18.20;99.90;;;;;;5036446;28;20041;-50
2023/09/02 06:15:26;;;;;;;36.97;23.75;;;18.30;99.90;;;;;;5036530;28;20033;-55
2023/09/02 06:17:53;;;;;;;36.22;22.63;;;18.20;99.90;;;;;;5034958;28;20071;-53
2023/09/02 06:20:20;;;;;;;31.77;22.65;;;18.20;99.90;;;;;;5036862;28;20033;-51
2023/09/02 06:22:47;;;;;;;32.53;22.02;;;18.20;99.90;;;;;;5036447;28;20527;-51
2023/09/02 06:25:14;;;;;;;31.95;21.83;;;18.30;99.90;;;;;;5036409;28;20519;-51
2023/09/02 06:27:41;;;;;;;33.33;22.27;;;18.30;99.90;;;;;;5036133;28;20045;-53
2023/09/02 06:30:07;;;;;;;32.50;23.02;;;18.30;99.90;;;;;;5036431;28;20538;-51
2023/09/02 06:32:34;;;;;;;35.15;23.05;;;18.20;99.90;;;;;;5035890;28;20053;-46
2023/09/02 06:35:01;;;;;;;36.25;22.55;;;18.20;99.90;;;;;;5036016;28;20366;-54
2023/09/02 06:37:29;;;;;;;37.38;23.73;;;18.20;99.90;;;;;;5036004;28;20484;-49
2023/09/02 06:39:56;;;;;;;33.00;22.48;;;18.20;99.90;;;;;;5035953;28;20073;-54
2023/09/02 06:42:23;;;;;;;35.33;24.17;;;18.20;99.90;;;;;;5034359;28;20405;-49
2023/09/02 06:44:49;;;;;;;31.77;22.20;;;18.30;99.90;;;;;;5034866;28;20046;-53
2023/09/02 06:47:16;;;;;;;33.83;22.98;;;18.30;99.90;;;;;;5035858;28;20039;-50
2023/09/02 06:49:43;;;;;;;33.22;24.33;;;18.30;99.90;;;;;;5035780;28;20504;-55
2023/09/02 06:52:10;;;;;;;36.38;23.70;;;18.30;99.90;;;;;;5035962;28;20046;-49
2023/09/02 06:54:37;;;;;;;35.60;23.95;;;18.40;99.90;;;;;;5035408;28;20080;-51
2023/09/02 06:57:04;;;;;;;31.98;23.67;;;18.40;99.90;;;;;;5035386;28;20057;-51
2023/09/02 06:59:30;;;;;;;35.85;24.30;;;18.40;99.90;;;;;;5035860;28;20052;-51
2023/09/02 07:01:57;;;;;;;32.47;23.55;;;18.40;99.90;;;;;;5035634;28;20044;-47
2023/09/02 07:04:24;;;;;;;32.35;24.38;;;18.40;99.90;;;;;;5034433;28;20378;-52
2023/09/02 07:06:51;;;;;;;32.85;22.98;;;18.50;99.90;;;;;;5034306;28;20481;-52
2023/09/02 07:09:18;;;;;;;31.27;22.52;;;18.60;99.90;;;;;;5034624;28;20053;-49
2023/09/02 07:11:44;;;;;;;35.13;23.35;;;18.70;99.90;;;;;;5035675;28;20452;-54
2023/09/02 07:14:11;;;;;;;35.67;22.98;;;18.70;99.90;;;;;;5035950;28;20037;-51
2023/09/02 07:16:38;;;;;;;32.67;23.55;;;18.70;99.90;;;;;;5033855;28;20042;-53
2023/09/02 07:19:05;;;;;;;33.17;24.30;;;18.80;99.90;;;;;;5035526;28;20068;-47
2023/09/02 07:21:31;;;;;;;29.95;22.60;;;18.80;99.90;;;;;;5034985;28;20042;-51
2023/09/02 07:23:58;;;;;;;31.60;22.88;;;18.90;99.90;;;;;;5035449;28;20091;-53
2023/09/02 07:26:29;;;;;;;31.02;23.15;;;18.90;99.90;;;;;;5035412;28;20043;-56
2023/09/02 07:28:56;;;;;;;30.60;22.08;;;19.00;99.90;;;;;;5035440;28;20128;-51
2023/09/02 07:31:23;;;;;;;29.33;22.33;;;19.00;99.90;;;;;;5035149;28;20055;-47
2023/09/02 07:33:49;;;;;;;29.50;21.05;;;18.90;99.90;;;;;;5035090;28;20149;-49
2023/09/02 07:36:16;;;;;;;31.42;22.50;;;18.90;99.90;;;;;;5035138;28;20464;-55
2023/09/02 07:38:46;;;;;;;32.97;22.13;;;18.90;99.90;;;;;;5034869;28;20052;-51
2023/09/02 07:41:13;;;;;;;30.73;21.00;;;19.00;99.90;;;;;;5033930;28;20045;-52
2023/09/02 07:43:40;;;;;;;27.00;19.90;;;19.00;99.90;;;;;;5034740;28;20042;-54
2023/09/02 07:46:07;;;;;;;23.75;17.27;;;19.00;99.90;;;;;;5034955;28;20049;-53
2023/09/02 07:48:34;;;;;;;30.25;21.08;;;19.10;99.90;;;;;;5034955;28;20096;-51
2023/09/02 07:51:01;;;;;;;27.92;18.48;;;19.10;99.90;;;;;;5034684;28;20132;-55
2023/09/02 07:53:28;;;;;;;28.25;19.25;;;19.20;99.90;;;;;;5033288;28;20058;-52
2023/09/02 07:55:55;;;;;;;26.45;19.92;;;19.30;99.90;;;;;;5034375;28;20519;-46
2023/09/02 07:58:21;;;;;;;26.83;18.88;;;19.40;99.90;;;;;;5034069;28;20034;-49
2023/09/02 08:00:48;;;;;;;25.83;19.27;;;19.50;99.90;;;;;;5034036;28;20045;-48
2023/09/02 08:03:15;;;;;;;20.80;16.45;;;19.50;99.90;;;;;;5034634;28;20038;-46
2023/09/02 08:05:43;;;;;;;23.20;17.45;;;19.50;99.90;;;;;;5034398;28;20049;-50
2023/09/02 08:08:09;;;;;;;22.75;17.52;;;19.60;99.90;;;;;;5033243;28;20488;-45
2023/09/02 08:10:36;;;;;;;21.75;16.10;;;19.60;99.90;;;;;;5034056;28;20487;-50
2023/09/02 08:13:06;;;;;;;20.50;15.75;;;19.70;99.90;;;;;;5034012;28;20120;-54
2023/09/02 08:15:33;;;;;;;21.23;16.58;;;19.70;99.90;;;;;;5034243;28;20473;-48
2023/09/02 08:17:59;;;;;;;22.38;15.32;;;19.70;99.90;;;;;;5032792;28;20038;-51
2023/09/02 08:20:26;;;;;;;18.80;15.27;;;19.70;99.90;;;;;;5032419;28;20041;-47
2023/09/02 08:22:53;;;;;;;20.33;15.10;;;19.70;99.90;;;;;;5033896;28;20037;-53
2023/09/02 08:25:20;;;;;;;19.95;15.50;;;19.70;99.90;;;;;;5034372;28;20473;-48
2023/09/02 08:27:47;;;;;;;19.60;14.00;;;19.80;99.90;;;;;;5033597;28;20038;-48
2023/09/02 08:30:14;;;;;;;18.95;13.43;;;19.80;99.90;;;;;;5033975;28;20049;-55
2023/09/02 08:32:40;;;;;;;15.80;12.73;;;19.90;99.90;;;;;;5033404;28;20041;-45
2023/09/02 08:35:08;;;;;;;16.45;11.85;;;19.80;99.90;;;;;;5034275;28;20068;-51
2023/09/02 08:37:37;;;;;;;15.43;12.10;;;19.90;99.90;;;;;;5033360;28;20046;-52
2023/09/02 08:40:04;;;;;;;17.65;12.90;;;19.90;99.90;;;;;;5031837;28;20041;-50
2023/09/02 08:42:31;;;;;;;16.20;12.88;;;20.10;99.90;;;;;;5032864;28;20061;-54
2023/09/02 08:44:57;;;;;;;16.60;13.65;;;20.00;99.90;;;;;;5033439;28;20033;-52
2023/09/02 08:47:24;;;;;;;17.35;13.32;;;19.90;99.90;;;;;;5031631;28;20049;-51
2023/09/02 08:49:51;;;;;;;17.13;12.55;;;19.90;99.90;;;;;;5033200;28;20046;-54
2023/09/02 08:52:18;;;;;;;18.85;12.57;;;19.80;99.90;;;;;;5032089;28;20041;-53
2023/09/02 08:54:44;;;;;;;16.67;11.77;;;19.90;99.90;;;;;;5026632;28;20072;-53
2023/09/02 08:57:11;;;;;;;16.85;12.43;;;19.90;99.90;;;;;;5018229;28;20054;-46
2023/09/02 08:59:38;;;;;;;18.13;12.63;;;19.90;99.90;;;;;;5032799;28;20045;-49
2023/09/02 09:02:06;;;;;;;16.50;10.77;;;19.90;99.90;;;;;;5032100;28;20033;-56
2023/09/02 09:04:35;;;;;;;13.10;10.77;;;20.00;99.90;;;;;;5034338;28;20037;-48
2023/09/02 09:07:02;;;;;;;15.15;11.07;;;20.10;99.90;;;;;;5031980;28;20037;-52
2023/09/02 09:09:29;;;;;;;16.08;10.40;;;20.20;99.90;;;;;;5032989;28;20069;-48
2023/09/02 09:11:57;;;;;;;14.40;10.93;;;20.20;99.90;;;;;;5032799;28;20041;-54
2023/09/02 09:14:24;;;;;;;11.75;9.85;;;20.20;99.90;;;;;;5031648;28;20519;-50
2023/09/02 09:16:51;;;;;;;13.65;9.27;;;20.10;99.90;;;;;;5032050;28;20044;-52
2023/09/02 09:19:18;;;;;;;15.50;9.02;;;20.10;99.90;;;;;;5032630;28;20492;-48
2023/09/02 09:21:45;;;;;;;11.40;8.43;;;20.10;99.90;;;;;;5030320;28;20072;-49
2023/09/02 09:24:14;;;;;;;11.25;7.88;;;20.20;99.90;;;;;;5032838;28;20037;-54
2023/09/02 09:26:41;;;;;;;11.68;7.38;;;20.10;99.90;;;;;;5031782;28;20503;-52
2023/09/02 09:29:08;;;;;;;13.98;7.20;;;20.10;99.90;;;;;;5032511;28;20045;-52
2023/09/02 09:31:34;;;;;;;9.07;5.95;;;20.20;99.90;;;;;;5033352;28;20052;-50
2023/09/02 09:34:02;;;;;;;6.68;4.20;;;20.30;99.90;;;;;;5036575;28;20116;-54
2023/09/02 09:36:29;;;;;;;10.55;4.60;;;20.40;99.90;;;;;;5036172;28;20136;-54
2023/09/02 09:38:56;;;;;;;6.93;4.75;;;20.60;99.90;;;;;;5036679;28;20045;-52
2023/09/02 09:41:23;;;;;;;8.38;4.75;;;20.80;99.90;;;;;;5036291;28;20491;-51
2023/09/02 09:43:50;;;;;;;8.98;4.55;;;20.90;99.90;;;;;;5037052;28;20052;-51
2023/09/02 09:46:17;;;;;;;5.47;3.85;;;21.00;99.90;;;;;;5035658;28;20044;-50
2023/09/02 09:48:44;;;;;;;8.02;4.90;;;21.10;99.90;;;;;;5036782;28;20060;-53
2023/09/02 09:51:10;;;;;;;8.82;4.20;;;21.10;99.90;;;;;;5035769;28;20047;-51
2023/09/02 09:53:37;;;;;;;9.70;4.10;;;21.10;99.90;;;;;;5036268;28;20052;-50
2023/09/02 09:56:04;;;;;;;8.30;4.45;;;21.10;99.90;;;;;;5036867;28;20074;-48
2023/09/02 09:58:31;;;;;;;8.10;4.13;;;21.20;99.90;;;;;;5016864;28;20045;-54
2023/09/02 10:00:57;;;;;;;7.07;3.78;;;21.30;99.90;;;;;;5034241;28;20049;-52
2023/09/02 10:03:24;;;;;;;7.13;3.47;;;21.40;99.90;;;;;;5035914;28;20132;-50
2023/09/02 10:05:51;;;;;;;7.32;3.30;;;21.60;99.90;;;;;;5036288;28;20129;-57
2023/09/02 10:08:18;;;;;;;4.30;3.05;;;21.70;99.90;;;;;;5035461;28;20052;-53
2023/09/02 10:10:45;;;;;;;6.78;3.22;;;21.90;99.90;;;;;;5035033;28;20045;-51
2023/09/02 10:13:11;;;;;;;5.03;3.10;;;21.90;99.90;;;;;;5036165;28;20141;-55
2023/09/02 10:15:38;;;;;;;5.63;3.00;;;21.90;99.90;;;;;;5035473;28;20064;-47
2023/09/02 10:18:05;;;;;;;4.25;2.80;;;22.00;99.90;;;;;;5035993;28;20081;-52
2023/09/02 10:20:32;;;;;;;4.85;2.75;;;21.90;99.90;;;;;;5035202;28;20119;-50
2023/09/02 10:22:59;;;;;;;7.38;3.13;;;21.90;99.90;;;;;;5036340;28;20041;-52
2023/09/02 10:25:27;;;;;;;4.85;3.13;;;21.90;99.90;;;;;;5035105;28;20041;-54
2023/09/02 10:27:54;;;;;;;9.98;5.60;;;21.90;99.90;;;;;;5036136;28;20049;-53
2023/09/02 10:30:21;;;;;;;7.07;3.25;;;22.00;99.90;;;;;;5034967;28;20129;-55
2023/09/02 10:32:47;;;;;;;4.53;2.33;;;22.00;99.90;;;;;;5035215;28;20045;-54
2023/09/02 10:35:14;;;;;;;3.65;2.33;;;22.00;99.90;;;;;;5033434;28;20053;-54
2023/09/02 10:37:41;;;;;;;5.18;2.22;;;21.90;99.90;;;;;;5035513;28;20045;-55
2023/09/02 10:40:08;;;;;;;5.20;2.25;;;21.90;99.90;;;;;;5035945;28;20109;-53
2023/09/02 10:42:35;;;;;;;4.30;2.45;;;21.90;99.90;;;;;;5035082;28;20056;-55
2023/09/02 10:45:02;;;;;;;6.55;2.72;;;21.80;99.90;;;;;;5035569;28;20034;-54
2023/09/02 10:47:28;;;;;;;3.85;1.98;;;21.80;99.90;;;;;;5034793;28;20041;-54
2023/09/02 10:49:55;;;;;;;5.20;2.42;;;21.60;99.90;;;;;;5034583;28;20376;-55
2023/09/02 10:52:22;;;;;;;6.43;2.40;;;21.70;99.90;;;;;;5029361;28;20050;-48
2023/09/02 10:54:52;;;;;;;4.57;2.33;;;21.80;99.90;;;;;;5027486;28;20089;-50
2023/09/02 10:57:19;;;;;;;7.38;2.20;;;21.80;99.90;;;;;;5028893;28;20095;-53
2023/09/02 10:59:49;;;;;;;5.10;2.03;;;21.80;99.90;;;;;;5034371;28;20060;-55
2023/09/02 11:02:16;;;;;;;3.30;1.48;;;21.80;99.90;;;;;;5034238;28;20046;-54
2023/09/02 11:04:47;;;;;;;2.55;1.40;;;21.90;99.90;;;;;;5033719;28;20041;-52
2023/09/02 11:07:14;;;;;;;3.08;1.50;;;22.00;99.90;;;;;;5034961;28;20053;-54
2023/09/02 11:09:41;;;;;;;4.65;1.90;;;22.30;99.90;;;;;;5035192;28;20400;-52
2023/09/02 11:12:08;;;;;;;3.28;1.48;;;22.30;99.90;;;;;;5034948;28;20056;-53
2023/09/02 11:14:34;;;;;;;3.75;1.30;;;22.40;99.90;;;;;;5034045;28;20053;-54
2023/09/02 11:17:01;;;;;;;6.03;1.65;;;22.60;99.90;;;;;;5034573;28;20116;-52
2023/09/02 11:19:28;;;;;;;4.82;1.35;;;22.70;99.90;;;;;;5034946;28;20050;-49
2023/09/02 11:21:57;;;;;;;3.58;1.27;;;22.80;99.90;;;;;;5034758;28;20368;-48
2023/09/02 11:24:24;;;;;;;3.72;1.50;;;22.70;99.90;;;;;;5034958;28;20049;-49
2023/09/02 11:26:51;;;;;;;7.03;1.48;;;22.70;99.90;;;;;;5034488;28;20132;-50
2023/09/02 11:29:17;;;;;;;4.20;1.50;;;22.70;99.90;;;;;;5033746;28;20049;-53
2023/09/02 11:31:45;;;;;;;5.30;1.38;;;22.60;99.90;;;;;;5036157;28;20124;-54
2023/09/02 11:34:11;;;;;;;4.95;1.40;;;22.60;99.90;;;;;;5033992;28;20045;-51
2023/09/02 11:36:38;;;;;;;3.15;1.33;;;22.70;99.90;;;;;;5035479;28;20217;-53
2023/09/02 11:39:05;;;;;;;3.03;1.30;;;22.70;99.90;;;;;;5033392;28;20033;-48
2023/09/02 11:41:32;;;;;;;3.92;1.30;;;22.80;99.90;;;;;;5034499;28;20041;-45
2023/09/02 11:43:58;;;;;;;2.80;1.10;;;22.90;99.90;;;;;;5034590;28;20049;-47
2023/09/02 11:46:25;;;;;;;5.10;1.50;;;23.00;99.90;;;;;;5033824;28;20647;-52
2023/09/02 11:48:52;;;;;;;4.25;1.30;;;23.10;99.90;;;;;;5032569;28;20089;-51
2023/09/02 11:51:20;;;;;;;2.35;1.17;;;23.10;99.90;;;;;;5032698;28;20045;-51
2023/09/02 11:53:47;;;;;;;2.80;1.17;;;23.20;99.90;;;;;;5032853;28;20045;-53
2023/09/02 11:56:13;;;;;;;2.72;1.27;;;23.30;99.90;;;;;;5033308;28;20045;-53
2023/09/02 11:58:40;;;;;;;3.10;1.25;;;23.40;99.90;;;;;;5033308;28;20556;-53
2023/09/02 12:01:07;;;;;;;3.47;1.27;;;23.40;99.90;;;;;;5033311;28;20050;-53
2023/09/02 12:03:34;;;;;;;2.88;1.30;;;23.40;99.90;;;;;;5034439;28;20045;-53
2023/09/02 12:06:01;;;;;;;5.13;1.42;;;23.30;99.90;;;;;;5034536;28;20050;-56
2023/09/02 12:08:28;;;;;;;4.70;1.40;;;23.40;99.90;;;;;;5034427;28;20038;-50
2023/09/02 12:10:55;;;;;;;2.97;1.25;;;23.40;99.90;;;;;;5034213;28;20042;-54
2023/09/02 12:13:22;;;;;;;3.38;1.30;;;23.40;99.90;;;;;;5032982;28;20052;-52
2023/09/02 12:15:52;;;;;;;3.15;1.40;;;23.30;99.90;;;;;;5034085;28;20076;-50
2023/09/02 12:18:19;;;;;;;3.53;1.60;;;23.20;99.90;;;;;;5034199;28;20080;-55
2023/09/02 12:20:46;;;;;;;4.72;1.60;;;23.20;99.90;;;;;;5034349;28;20041;-55
2023/09/02 12:23:13;;;;;;;3.30;1.38;;;23.30;99.90;;;;;;5034116;28;20048;-51
2023/09/02 12:25:41;;;;;;;3.72;1.20;;;23.50;99.90;;;;;;5034043;28;20037;-50
2023/09/02 12:28:08;;;;;;;2.88;1.20;;;23.70;99.90;;;;;;5033817;28;20537;-49